sensor_id;sensor_type;location;lat;lon;timestamp;P1;durP1;ratioP1;P2;durP2;ratioP2
13173;SDS011;6652;48.802;9.190;2023-09-12T00:00:44;24.92;;;11.20;;
13173;SDS011;6652;48.802;9.190;2023-09-12T00:03:12;23.00;;;10.48;;
13173;SDS011;6652;48.802;9.190;2023-09-12T00:05:39;27.20;;;10.65;;
13173;SDS011;6652;48.802;9.190;2023-09-12T00:08:06;23.02;;;11.32;;
13173;SDS011;6652;48.802;9.190;2023-09-12T00:10:33;25.60;;;10.43;;
13173;SDS011;6652;48.802;9.190;2023-09-12T00:13:01;33.58;;;10.73;;
13173;SDS011;6652;48.802;9.190;2023-09-12T00:15:28;23.85;;;10.85;;
13173;SDS011;6652;48.802;9.190;2023-09-12T00:17:55;28.23;;;10.93;;
13173;SDS011;6652;48.802;9.190;2023-09-12T00:20:22;23.35;;;10.55;;
13173;SDS011;6652;48.802;9.190;2023-09-12T00:22:49;19.92;;;10.65;;
13173;SDS011;6652;48.802;9.190;2023-09-12T00:25:18;21.38;;;10.95;;
13173;SDS011;6652;48.802;9.190;2023-09-12T00:27:45;26.98;;;10.55;;
13173;SDS011;6652;48.802;9.190;2023-09-12T00:30:14;21.70;;;11.05;;
13173;SDS011;6652;48.802;9.190;2023-09-12T00:32:41;27.42;;;11.60;;
13173;SDS011;6652;48.802;9.190;2023-09-12T00:35:08;28.08;;;11.40;;
13173;SDS011;6652;48.802;9.190;2023-09-12T00:37:35;30.63;;;11.82;;
13173;SDS011;6652;48.802;9.190;2023-09-12T00:40:02;30.88;;;11.85;;
13173;SDS011;6652;48.802;9.190;2023-09-12T00:42:30;21.27;;;11.02;;
13173;SDS011;6652;48.802;9.190;2023-09-12T00:44:57;22.10;;;10.68;;
13173;SDS011;6652;48.802;9.190;2023-09-12T00:47:25;24.30;;;11.63;;
13173;SDS011;6652;48.802;9.190;2023-09-12T00:49:53;18.42;;;10.55;;
13173;SDS011;6652;48.802;9.190;2023-09-12T00:52:21;23.27;;;11.68;;
13173;SDS011;6652;48.802;9.190;2023-09-12T00:54:49;18.38;;;10.55;;
13173;SDS011;6652;48.802;9.190;2023-09-12T00:57:16;20.90;;;10.07;;
13173;SDS011;6652;48.802;9.190;2023-09-12T00:59:43;21.58;;;10.25;;
13173;SDS011;6652;48.802;9.190;2023-09-12T01:02:10;25.38;;;10.32;;
13173;SDS011;6652;48.802;9.190;2023-09-12T01:04:39;25.98;;;10.70;;
13173;SDS011;6652;48.802;9.190;2023-09-12T01:07:06;23.60;;;10.60;;
13173;SDS011;6652;48.802;9.190;2023-09-12T01:09:33;22.00;;;10.45;;
13173;SDS011;6652;48.802;9.190;2023-09-12T01:12:00;19.15;;;10.50;;
13173;SDS011;6652;48.802;9.190;2023-09-12T01:14:27;21.45;;;10.27;;
13173;SDS011;6652;48.802;9.190;2023-09-12T01:16:54;29.35;;;11.35;;
13173;SDS011;6652;48.802;9.190;2023-09-12T01:19:22;29.77;;;11.43;;
13173;SDS011;6652;48.802;9.190;2023-09-12T01:24:56;17.38;;;11.30;;
13173;SDS011;6652;48.802;9.190;2023-09-12T01:27:42;21.10;;;11.18;;
13173;SDS011;6652;48.802;9.190;2023-09-12T01:30:12;23.83;;;10.82;;
13173;SDS011;6652;48.802;9.190;2023-09-12T01:32:43;22.30;;;10.85;;
13173;SDS011;6652;48.802;9.190;2023-09-12T01:35:10;19.10;;;10.63;;
13173;SDS011;6652;48.802;9.190;2023-09-12T01:37:37;16.48;;;11.13;;
13173;SDS011;6652;48.802;9.190;2023-09-12T01:40:04;28.52;;;10.85;;
13173;SDS011;6652;48.802;9.190;2023-09-12T01:42:35;20.60;;;10.88;;
13173;SDS011;6652;48.802;9.190;2023-09-12T01:45:06;29.42;;;12.38;;
13173;SDS011;6652;48.802;9.190;2023-09-12T01:47:35;33.95;;;11.77;;
13173;SDS011;6652;48.802;9.190;2023-09-12T01:50:05;35.13;;;12.55;;
13173;SDS011;6652;48.802;9.190;2023-09-12T01:55:05;23.67;;;11.32;;
13173;SDS011;6652;48.802;9.190;2023-09-12T01:57:35;22.33;;;10.40;;
13173;SDS011;6652;48.802;9.190;2023-09-12T02:00:05;28.45;;;11.73;;
13173;SDS011;6652;48.802;9.190;2023-09-12T02:02:33;20.63;;;11.40;;
13173;SDS011;6652;48.802;9.190;2023-09-12T02:05:04;28.65;;;12.25;;
13173;SDS011;6652;48.802;9.190;2023-09-12T02:07:38;22.42;;;12.25;;
13173;SDS011;6652;48.802;9.190;2023-09-12T02:10:06;32.60;;;12.75;;
13173;SDS011;6652;48.802;9.190;2023-09-12T02:12:34;25.58;;;11.48;;
13173;SDS011;6652;48.802;9.190;2023-09-12T02:15:01;22.58;;;11.80;;
13173;SDS011;6652;48.802;9.190;2023-09-12T02:17:31;27.27;;;11.77;;
13173;SDS011;6652;48.802;9.190;2023-09-12T02:19:58;33.92;;;12.20;;
13173;SDS011;6652;48.802;9.190;2023-09-12T02:22:25;21.67;;;12.00;;
13173;SDS011;6652;48.802;9.190;2023-09-12T02:24:52;24.35;;;12.00;;
13173;SDS011;6652;48.802;9.190;2023-09-12T02:27:19;25.25;;;12.75;;
13173;SDS011;6652;48.802;9.190;2023-09-12T02:29:46;27.92;;;12.80;;
13173;SDS011;6652;48.802;9.190;2023-09-12T02:32:13;31.92;;;13.48;;
13173;SDS011;6652;48.802;9.190;2023-09-12T02:34:41;26.63;;;12.98;;
13173;SDS011;6652;48.802;9.190;2023-09-12T02:37:08;26.25;;;12.00;;
13173;SDS011;6652;48.802;9.190;2023-09-12T02:39:34;26.27;;;13.30;;
13173;SDS011;6652;48.802;9.190;2023-09-12T02:42:01;27.70;;;13.45;;
13173;SDS011;6652;48.802;9.190;2023-09-12T02:44:28;22.40;;;12.45;;
13173;SDS011;6652;48.802;9.190;2023-09-12T02:46:55;29.30;;;12.75;;
13173;SDS011;6652;48.802;9.190;2023-09-12T02:49:22;37.22;;;13.02;;
13173;SDS011;6652;48.802;9.190;2023-09-12T02:51:50;34.72;;;14.30;;
13173;SDS011;6652;48.802;9.190;2023-09-12T02:54:17;25.42;;;13.43;;
13173;SDS011;6652;48.802;9.190;2023-09-12T02:56:43;24.92;;;12.07;;
13173;SDS011;6652;48.802;9.190;2023-09-12T02:59:10;26.48;;;12.82;;
13173;SDS011;6652;48.802;9.190;2023-09-12T03:01:37;27.10;;;13.18;;
13173;SDS011;6652;48.802;9.190;2023-09-12T03:04:03;29.98;;;12.23;;
13173;SDS011;6652;48.802;9.190;2023-09-12T03:06:30;25.27;;;12.77;;
13173;SDS011;6652;48.802;9.190;2023-09-12T03:08:59;26.73;;;12.70;;
13173;SDS011;6652;48.802;9.190;2023-09-12T03:11:26;24.98;;;13.48;;
13173;SDS011;6652;48.802;9.190;2023-09-12T03:13:53;34.58;;;13.30;;
13173;SDS011;6652;48.802;9.190;2023-09-12T03:16:20;28.25;;;12.02;;
13173;SDS011;6652;48.802;9.190;2023-09-12T03:18:48;26.38;;;11.30;;
13173;SDS011;6652;48.802;9.190;2023-09-12T03:21:15;24.15;;;12.60;;
13173;SDS011;6652;48.802;9.190;2023-09-12T03:23:41;20.45;;;12.40;;
13173;SDS011;6652;48.802;9.190;2023-09-12T03:26:09;28.15;;;12.40;;
13173;SDS011;6652;48.802;9.190;2023-09-12T03:28:36;27.10;;;13.30;;
13173;SDS011;6652;48.802;9.190;2023-09-12T03:31:03;37.03;;;13.10;;
13173;SDS011;6652;48.802;9.190;2023-09-12T03:33:32;25.15;;;13.07;;
13173;SDS011;6652;48.802;9.190;2023-09-12T03:35:58;26.60;;;12.05;;
13173;SDS011;6652;48.802;9.190;2023-09-12T03:38:25;37.08;;;14.20;;
13173;SDS011;6652;48.802;9.190;2023-09-12T03:40:52;30.33;;;14.27;;
13173;SDS011;6652;48.802;9.190;2023-09-12T03:43:20;26.58;;;13.27;;
13173;SDS011;6652;48.802;9.190;2023-09-12T03:45:47;28.85;;;13.10;;
13173;SDS011;6652;48.802;9.190;2023-09-12T03:48:14;22.35;;;12.75;;
13173;SDS011;6652;48.802;9.190;2023-09-12T03:50:40;26.45;;;12.32;;
13173;SDS011;6652;48.802;9.190;2023-09-12T03:53:07;26.13;;;13.38;;
13173;SDS011;6652;48.802;9.190;2023-09-12T03:55:34;20.58;;;12.82;;
13173;SDS011;6652;48.802;9.190;2023-09-12T03:58:01;30.38;;;13.10;;
13173;SDS011;6652;48.802;9.190;2023-09-12T04:00:29;28.83;;;13.25;;
13173;SDS011;6652;48.802;9.190;2023-09-12T04:02:56;22.58;;;12.63;;
13173;SDS011;6652;48.802;9.190;2023-09-12T04:05:23;24.95;;;12.30;;
13173;SDS011;6652;48.802;9.190;2023-09-12T04:07:50;18.42;;;11.48;;
13173;SDS011;6652;48.802;9.190;2023-09-12T04:10:17;29.63;;;13.35;;
13173;SDS011;6652;48.802;9.190;2023-09-12T04:12:45;33.42;;;14.05;;
13173;SDS011;6652;48.802;9.190;2023-09-12T04:15:12;28.92;;;12.27;;
13173;SDS011;6652;48.802;9.190;2023-09-12T04:17:40;27.15;;;13.35;;
13173;SDS011;6652;48.802;9.190;2023-09-12T04:20:07;27.17;;;13.30;;
13173;SDS011;6652;48.802;9.190;2023-09-12T04:22:34;35.00;;;14.88;;
13173;SDS011;6652;48.802;9.190;2023-09-12T04:25:00;41.10;;;19.42;;
13173;SDS011;6652;48.802;9.190;2023-09-12T04:27:28;29.92;;;13.55;;
13173;SDS011;6652;48.802;9.190;2023-09-12T04:29:54;28.45;;;14.13;;
13173;SDS011;6652;48.802;9.190;2023-09-12T04:32:21;30.50;;;13.80;;
13173;SDS011;6652;48.802;9.190;2023-09-12T04:34:50;30.80;;;14.52;;
13173;SDS011;6652;48.802;9.190;2023-09-12T04:37:17;36.33;;;13.40;;
13173;SDS011;6652;48.802;9.190;2023-09-12T04:39:44;30.45;;;13.27;;
13173;SDS011;6652;48.802;9.190;2023-09-12T04:42:11;32.40;;;12.43;;
13173;SDS011;6652;48.802;9.190;2023-09-12T04:44:39;26.50;;;12.15;;
13173;SDS011;6652;48.802;9.190;2023-09-12T04:47:06;31.35;;;12.50;;
13173;SDS011;6652;48.802;9.190;2023-09-12T04:49:34;29.30;;;12.98;;
13173;SDS011;6652;48.802;9.190;2023-09-12T04:52:02;30.08;;;13.23;;
13173;SDS011;6652;48.802;9.190;2023-09-12T04:54:30;31.40;;;12.57;;
13173;SDS011;6652;48.802;9.190;2023-09-12T04:56:56;26.95;;;12.45;;
13173;SDS011;6652;48.802;9.190;2023-09-12T04:59:23;32.42;;;12.57;;
13173;SDS011;6652;48.802;9.190;2023-09-12T05:01:50;20.52;;;11.88;;
13173;SDS011;6652;48.802;9.190;2023-09-12T05:04:17;35.22;;;12.48;;
13173;SDS011;6652;48.802;9.190;2023-09-12T05:06:45;26.75;;;12.13;;
13173;SDS011;6652;48.802;9.190;2023-09-12T05:09:13;24.85;;;11.68;;
13173;SDS011;6652;48.802;9.190;2023-09-12T05:11:40;25.88;;;11.95;;
13173;SDS011;6652;48.802;9.190;2023-09-12T05:14:07;25.10;;;11.73;;
13173;SDS011;6652;48.802;9.190;2023-09-12T05:16:34;28.48;;;11.82;;
13173;SDS011;6652;48.802;9.190;2023-09-12T05:19:01;28.90;;;12.32;;
13173;SDS011;6652;48.802;9.190;2023-09-12T05:21:28;31.23;;;12.73;;
13173;SDS011;6652;48.802;9.190;2023-09-12T05:23:55;24.05;;;11.52;;
13173;SDS011;6652;48.802;9.190;2023-09-12T05:26:23;28.88;;;11.07;;
13173;SDS011;6652;48.802;9.190;2023-09-12T05:28:50;27.02;;;10.75;;
13173;SDS011;6652;48.802;9.190;2023-09-12T05:31:17;29.25;;;11.30;;
13173;SDS011;6652;48.802;9.190;2023-09-12T05:33:44;34.65;;;11.23;;
13173;SDS011;6652;48.802;9.190;2023-09-12T05:36:11;26.38;;;12.20;;
13173;SDS011;6652;48.802;9.190;2023-09-12T05:38:38;24.83;;;11.38;;
13173;SDS011;6652;48.802;9.190;2023-09-12T05:41:04;24.73;;;11.77;;
13173;SDS011;6652;48.802;9.190;2023-09-12T05:43:33;26.17;;;11.13;;
13173;SDS011;6652;48.802;9.190;2023-09-12T05:46:00;28.58;;;11.13;;
13173;SDS011;6652;48.802;9.190;2023-09-12T05:48:27;29.80;;;10.77;;
13173;SDS011;6652;48.802;9.190;2023-09-12T05:50:54;25.08;;;11.75;;
13173;SDS011;6652;48.802;9.190;2023-09-12T05:53:21;32.28;;;11.35;;
13173;SDS011;6652;48.802;9.190;2023-09-12T05:55:48;34.15;;;11.63;;
13173;SDS011;6652;48.802;9.190;2023-09-12T05:58:15;33.85;;;11.20;;
13173;SDS011;6652;48.802;9.190;2023-09-12T06:00:43;25.77;;;10.93;;
13173;SDS011;6652;48.802;9.190;2023-09-12T06:03:14;22.42;;;10.30;;
13173;SDS011;6652;48.802;9.190;2023-09-12T06:05:41;28.33;;;10.70;;
13173;SDS011;6652;48.802;9.190;2023-09-12T06:08:08;22.60;;;10.23;;
13173;SDS011;6652;48.802;9.190;2023-09-12T06:10:34;23.58;;;10.60;;
13173;SDS011;6652;48.802;9.190;2023-09-12T06:13:01;22.33;;;10.80;;
13173;SDS011;6652;48.802;9.190;2023-09-12T06:15:30;21.13;;;10.32;;
13173;SDS011;6652;48.802;9.190;2023-09-12T06:17:58;30.23;;;10.98;;
13173;SDS011;6652;48.802;9.190;2023-09-12T06:20:25;22.25;;;10.27;;
13173;SDS011;6652;48.802;9.190;2023-09-12T06:22:51;29.20;;;10.68;;
13173;SDS011;6652;48.802;9.190;2023-09-12T06:25:18;21.25;;;10.48;;
13173;SDS011;6652;48.802;9.190;2023-09-12T06:27:45;23.85;;;10.38;;
13173;SDS011;6652;48.802;9.190;2023-09-12T06:30:12;33.25;;;10.18;;
13173;SDS011;6652;48.802;9.190;2023-09-12T06:32:39;20.10;;;9.77;;
13173;SDS011;6652;48.802;9.190;2023-09-12T06:35:08;23.38;;;9.93;;
13173;SDS011;6652;48.802;9.190;2023-09-12T06:37:36;19.52;;;10.50;;
13173;SDS011;6652;48.802;9.190;2023-09-12T06:40:03;27.95;;;10.23;;
13173;SDS011;6652;48.802;9.190;2023-09-12T06:42:30;26.33;;;10.60;;
13173;SDS011;6652;48.802;9.190;2023-09-12T06:44:57;24.15;;;9.82;;
13173;SDS011;6652;48.802;9.190;2023-09-12T06:47:24;25.67;;;10.32;;
13173;SDS011;6652;48.802;9.190;2023-09-12T06:49:50;24.08;;;10.70;;
13173;SDS011;6652;48.802;9.190;2023-09-12T06:52:19;26.38;;;10.77;;
13173;SDS011;6652;48.802;9.190;2023-09-12T06:54:45;26.35;;;10.18;;
13173;SDS011;6652;48.802;9.190;2023-09-12T06:57:12;24.20;;;10.75;;
13173;SDS011;6652;48.802;9.190;2023-09-12T06:59:39;22.58;;;11.20;;
13173;SDS011;6652;48.802;9.190;2023-09-12T07:02:05;26.50;;;11.20;;
13173;SDS011;6652;48.802;9.190;2023-09-12T07:04:32;27.77;;;11.73;;
13173;SDS011;6652;48.802;9.190;2023-09-12T07:06:59;24.88;;;11.40;;
13173;SDS011;6652;48.802;9.190;2023-09-12T07:09:28;25.63;;;11.30;;
13173;SDS011;6652;48.802;9.190;2023-09-12T07:11:54;23.15;;;10.75;;
13173;SDS011;6652;48.802;9.190;2023-09-12T07:14:21;26.77;;;11.07;;
13173;SDS011;6652;48.802;9.190;2023-09-12T07:16:50;25.88;;;12.40;;
13173;SDS011;6652;48.802;9.190;2023-09-12T07:19:17;31.85;;;10.98;;
13173;SDS011;6652;48.802;9.190;2023-09-12T07:21:43;29.10;;;12.40;;
13173;SDS011;6652;48.802;9.190;2023-09-12T07:24:11;29.58;;;11.65;;
13173;SDS011;6652;48.802;9.190;2023-09-12T07:26:39;29.40;;;11.43;;
13173;SDS011;6652;48.802;9.190;2023-09-12T07:29:05;27.38;;;10.93;;
13173;SDS011;6652;48.802;9.190;2023-09-12T07:31:32;18.40;;;10.93;;
13173;SDS011;6652;48.802;9.190;2023-09-12T07:33:59;28.55;;;10.35;;
13173;SDS011;6652;48.802;9.190;2023-09-12T07:36:26;33.38;;;11.05;;
13173;SDS011;6652;48.802;9.190;2023-09-12T07:38:52;26.67;;;9.98;;
13173;SDS011;6652;48.802;9.190;2023-09-12T07:41:19;21.92;;;10.25;;
13173;SDS011;6652;48.802;9.190;2023-09-12T07:43:47;27.45;;;9.82;;
13173;SDS011;6652;48.802;9.190;2023-09-12T07:46:14;31.30;;;10.82;;
13173;SDS011;6652;48.802;9.190;2023-09-12T07:48:41;27.33;;;10.68;;
13173;SDS011;6652;48.802;9.190;2023-09-12T07:51:11;22.02;;;9.70;;
13173;SDS011;6652;48.802;9.190;2023-09-12T07:53:39;25.75;;;9.75;;
13173;SDS011;6652;48.802;9.190;2023-09-12T07:56:06;21.70;;;8.50;;
13173;SDS011;6652;48.802;9.190;2023-09-12T07:58:34;17.63;;;8.60;;
13173;SDS011;6652;48.802;9.190;2023-09-12T08:01:08;26.77;;;9.88;;
13173;SDS011;6652;48.802;9.190;2023-09-12T08:03:36;24.05;;;10.50;;
13173;SDS011;6652;48.802;9.190;2023-09-12T08:06:04;28.33;;;9.70;;
13173;SDS011;6652;48.802;9.190;2023-09-12T08:08:32;27.17;;;10.82;;
13173;SDS011;6652;48.802;9.190;2023-09-12T08:10:59;19.52;;;9.35;;
13173;SDS011;6652;48.802;9.190;2023-09-12T08:13:26;20.45;;;9.63;;
13173;SDS011;6652;48.802;9.190;2023-09-12T08:15:53;24.55;;;10.40;;
13173;SDS011;6652;48.802;9.190;2023-09-12T08:18:25;23.80;;;10.57;;
13173;SDS011;6652;48.802;9.190;2023-09-12T08:20:53;23.52;;;11.25;;
13173;SDS011;6652;48.802;9.190;2023-09-12T08:23:20;34.03;;;11.90;;
13173;SDS011;6652;48.802;9.190;2023-09-12T08:25:47;44.20;;;11.93;;
13173;SDS011;6652;48.802;9.190;2023-09-12T08:28:13;27.90;;;10.90;;
13173;SDS011;6652;48.802;9.190;2023-09-12T08:30:40;26.70;;;10.70;;
13173;SDS011;6652;48.802;9.190;2023-09-12T08:33:07;38.13;;;10.60;;
13173;SDS011;6652;48.802;9.190;2023-09-12T08:35:35;34.33;;;10.40;;
13173;SDS011;6652;48.802;9.190;2023-09-12T08:38:02;32.75;;;11.75;;
13173;SDS011;6652;48.802;9.190;2023-09-12T08:40:30;44.78;;;11.00;;
13173;SDS011;6652;48.802;9.190;2023-09-12T08:43:00;26.27;;;10.70;;
13173;SDS011;6652;48.802;9.190;2023-09-12T08:45:28;26.17;;;10.88;;
13173;SDS011;6652;48.802;9.190;2023-09-12T08:47:56;31.83;;;10.52;;
13173;SDS011;6652;48.802;9.190;2023-09-12T08:50:26;27.15;;;9.98;;
13173;SDS011;6652;48.802;9.190;2023-09-12T08:52:57;25.23;;;10.82;;
13173;SDS011;6652;48.802;9.190;2023-09-12T08:55:24;25.48;;;10.77;;
13173;SDS011;6652;48.802;9.190;2023-09-12T08:57:52;29.65;;;10.25;;
13173;SDS011;6652;48.802;9.190;2023-09-12T09:00:20;34.78;;;9.60;;
13173;SDS011;6652;48.802;9.190;2023-09-12T09:02:50;34.03;;;8.95;;
13173;SDS011;6652;48.802;9.190;2023-09-12T09:05:18;35.13;;;9.70;;
13173;SDS011;6652;48.802;9.190;2023-09-12T09:07:47;25.95;;;9.23;;
13173;SDS011;6652;48.802;9.190;2023-09-12T09:10:16;20.13;;;8.70;;
13173;SDS011;6652;48.802;9.190;2023-09-12T09:12:45;21.48;;;9.35;;
13173;SDS011;6652;48.802;9.190;2023-09-12T09:15:19;24.33;;;8.93;;
13173;SDS011;6652;48.802;9.190;2023-09-12T09:17:47;23.48;;;9.20;;
13173;SDS011;6652;48.802;9.190;2023-09-12T09:20:21;21.52;;;9.23;;
13173;SDS011;6652;48.802;9.190;2023-09-12T09:22:56;24.75;;;8.85;;
13173;SDS011;6652;48.802;9.190;2023-09-12T09:25:27;28.08;;;10.20;;
13173;SDS011;6652;48.802;9.190;2023-09-12T09:30:38;23.92;;;8.85;;
13173;SDS011;6652;48.802;9.190;2023-09-12T09:33:06;39.85;;;9.30;;
13173;SDS011;6652;48.802;9.190;2023-09-12T09:35:33;24.80;;;9.75;;
13173;SDS011;6652;48.802;9.190;2023-09-12T09:38:00;20.52;;;8.48;;
13173;SDS011;6652;48.802;9.190;2023-09-12T09:40:30;26.38;;;9.60;;
13173;SDS011;6652;48.802;9.190;2023-09-12T09:42:58;24.33;;;8.98;;
13173;SDS011;6652;48.802;9.190;2023-09-12T09:45:26;24.83;;;8.88;;
13173;SDS011;6652;48.802;9.190;2023-09-12T09:47:56;22.75;;;9.45;;
13173;SDS011;6652;48.802;9.190;2023-09-12T09:50:24;18.63;;;8.70;;
13173;SDS011;6652;48.802;9.190;2023-09-12T09:52:53;16.33;;;8.23;;
13173;SDS011;6652;48.802;9.190;2023-09-12T09:55:21;16.17;;;7.97;;
13173;SDS011;6652;48.802;9.190;2023-09-12T09:57:49;19.40;;;8.27;;
13173;SDS011;6652;48.802;9.190;2023-09-12T10:00:18;18.27;;;8.68;;
13173;SDS011;6652;48.802;9.190;2023-09-12T10:02:46;25.70;;;8.48;;
13173;SDS011;6652;48.802;9.190;2023-09-12T10:05:16;17.35;;;8.85;;
13173;SDS011;6652;48.802;9.190;2023-09-12T10:07:44;18.65;;;8.55;;
13173;SDS011;6652;48.802;9.190;2023-09-12T10:10:14;17.17;;;8.23;;
13173;SDS011;6652;48.802;9.190;2023-09-12T10:12:43;13.93;;;8.40;;
13173;SDS011;6652;48.802;9.190;2023-09-12T10:15:19;20.42;;;8.20;;
13173;SDS011;6652;48.802;9.190;2023-09-12T10:17:49;16.83;;;7.88;;
13173;SDS011;6652;48.802;9.190;2023-09-12T10:20:21;21.20;;;7.63;;
13173;SDS011;6652;48.802;9.190;2023-09-12T10:22:57;17.58;;;7.80;;
13173;SDS011;6652;48.802;9.190;2023-09-12T10:25:32;19.08;;;7.55;;
13173;SDS011;6652;48.802;9.190;2023-09-12T10:28:01;17.00;;;7.47;;
13173;SDS011;6652;48.802;9.190;2023-09-12T10:30:31;11.90;;;7.18;;
13173;SDS011;6652;48.802;9.190;2023-09-12T10:32:59;21.85;;;7.53;;
13173;SDS011;6652;48.802;9.190;2023-09-12T10:35:28;13.15;;;7.22;;
13173;SDS011;6652;48.802;9.190;2023-09-12T10:37:59;19.83;;;8.18;;
13173;SDS011;6652;48.802;9.190;2023-09-12T10:40:29;17.70;;;6.40;;
13173;SDS011;6652;48.802;9.190;2023-09-12T10:42:57;12.30;;;7.25;;
13173;SDS011;6652;48.802;9.190;2023-09-12T10:45:26;21.35;;;7.18;;
13173;SDS011;6652;48.802;9.190;2023-09-12T10:47:55;18.67;;;6.13;;
13173;SDS011;6652;48.802;9.190;2023-09-12T10:50:22;19.80;;;6.35;;
13173;SDS011;6652;48.802;9.190;2023-09-12T10:52:49;14.07;;;6.00;;
13173;SDS011;6652;48.802;9.190;2023-09-12T10:55:16;17.90;;;6.78;;
13173;SDS011;6652;48.802;9.190;2023-09-12T10:58:00;16.85;;;5.97;;
13173;SDS011;6652;48.802;9.190;2023-09-12T11:00:28;15.82;;;6.85;;
13173;SDS011;6652;48.802;9.190;2023-09-12T11:02:59;18.13;;;7.00;;
13173;SDS011;6652;48.802;9.190;2023-09-12T11:05:53;15.73;;;6.65;;
13173;SDS011;6652;48.802;9.190;2023-09-12T11:08:21;15.38;;;6.38;;
13173;SDS011;6652;48.802;9.190;2023-09-12T11:13:45;15.32;;;6.85;;
13173;SDS011;6652;48.802;9.190;2023-09-12T11:16:12;13.70;;;6.75;;
13173;SDS011;6652;48.802;9.190;2023-09-12T11:21:42;11.02;;;5.88;;
13173;SDS011;6652;48.802;9.190;2023-09-12T11:24:10;11.68;;;5.85;;
13173;SDS011;6652;48.802;9.190;2023-09-12T11:26:51;11.82;;;5.65;;
13173;SDS011;6652;48.802;9.190;2023-09-12T11:31:58;15.45;;;6.03;;
13173;SDS011;6652;48.802;9.190;2023-09-12T11:34:30;16.00;;;6.22;;
13173;SDS011;6652;48.802;9.190;2023-09-12T11:37:04;16.83;;;7.05;;
13173;SDS011;6652;48.802;9.190;2023-09-12T11:39:32;14.52;;;6.90;;
13173;SDS011;6652;48.802;9.190;2023-09-12T11:42:01;15.27;;;7.03;;
13173;SDS011;6652;48.802;9.190;2023-09-12T11:44:29;15.20;;;6.57;;
13173;SDS011;6652;48.802;9.190;2023-09-12T11:46:59;14.85;;;6.90;;
13173;SDS011;6652;48.802;9.190;2023-09-12T11:49:29;18.20;;;7.22;;
13173;SDS011;6652;48.802;9.190;2023-09-12T11:52:02;36.15;;;10.05;;
13173;SDS011;6652;48.802;9.190;2023-09-12T11:54:29;15.93;;;6.80;;
13173;SDS011;6652;48.802;9.190;2023-09-12T11:56:58;21.58;;;7.78;;
13173;SDS011;6652;48.802;9.190;2023-09-12T11:59:25;12.50;;;7.60;;
13173;SDS011;6652;48.802;9.190;2023-09-12T12:01:52;12.65;;;7.10;;
13173;SDS011;6652;48.802;9.190;2023-09-12T12:04:20;10.98;;;6.78;;
13173;SDS011;6652;48.802;9.190;2023-09-12T12:06:51;18.75;;;6.97;;
13173;SDS011;6652;48.802;9.190;2023-09-12T12:09:18;13.50;;;6.90;;
13173;SDS011;6652;48.802;9.190;2023-09-12T12:11:46;12.68;;;7.10;;
13173;SDS011;6652;48.802;9.190;2023-09-12T12:14:14;15.57;;;6.38;;
13173;SDS011;6652;48.802;9.190;2023-09-12T12:16:42;15.93;;;6.55;;
13173;SDS011;6652;48.802;9.190;2023-09-12T12:19:09;10.60;;;6.75;;
13173;SDS011;6652;48.802;9.190;2023-09-12T12:21:37;15.48;;;6.75;;
13173;SDS011;6652;48.802;9.190;2023-09-12T12:24:07;14.65;;;6.18;;
13173;SDS011;6652;48.802;9.190;2023-09-12T12:26:36;15.20;;;6.03;;
13173;SDS011;6652;48.802;9.190;2023-09-12T12:29:04;18.23;;;6.07;;
13173;SDS011;6652;48.802;9.190;2023-09-12T12:31:32;10.45;;;5.85;;
13173;SDS011;6652;48.802;9.190;2023-09-12T12:33:59;11.98;;;5.82;;
13173;SDS011;6652;48.802;9.190;2023-09-12T12:36:25;11.15;;;6.03;;
13173;SDS011;6652;48.802;9.190;2023-09-12T12:38:53;14.95;;;5.60;;
13173;SDS011;6652;48.802;9.190;2023-09-12T12:41:25;14.48;;;5.85;;
13173;SDS011;6652;48.802;9.190;2023-09-12T12:43:53;15.15;;;5.68;;
13173;SDS011;6652;48.802;9.190;2023-09-12T12:46:24;12.80;;;5.80;;
13173;SDS011;6652;48.802;9.190;2023-09-12T12:48:51;22.63;;;6.18;;
13173;SDS011;6652;48.802;9.190;2023-09-12T12:51:18;16.40;;;6.18;;
13173;SDS011;6652;48.802;9.190;2023-09-12T12:53:48;18.98;;;5.40;;
13173;SDS011;6652;48.802;9.190;2023-09-12T12:56:16;14.38;;;5.72;;
13173;SDS011;6652;48.802;9.190;2023-09-12T12:58:49;8.13;;;5.35;;
13173;SDS011;6652;48.802;9.190;2023-09-12T13:01:18;15.85;;;6.05;;
13173;SDS011;6652;48.802;9.190;2023-09-12T13:03:45;11.82;;;5.80;;
13173;SDS011;6652;48.802;9.190;2023-09-12T13:06:12;12.25;;;5.93;;
13173;SDS011;6652;48.802;9.190;2023-09-12T13:08:42;20.10;;;6.20;;
13173;SDS011;6652;48.802;9.190;2023-09-12T13:11:11;28.17;;;5.50;;
13173;SDS011;6652;48.802;9.190;2023-09-12T13:13:38;13.07;;;5.10;;
13173;SDS011;6652;48.802;9.190;2023-09-12T13:16:08;11.13;;;5.22;;
13173;SDS011;6652;48.802;9.190;2023-09-12T13:18:36;13.32;;;5.57;;
13173;SDS011;6652;48.802;9.190;2023-09-12T13:21:04;18.60;;;6.18;;
13173;SDS011;6652;48.802;9.190;2023-09-12T13:23:32;17.30;;;5.18;;
13173;SDS011;6652;48.802;9.190;2023-09-12T13:26:00;20.27;;;6.05;;
13173;SDS011;6652;48.802;9.190;2023-09-12T13:28:28;13.50;;;6.22;;
13173;SDS011;6652;48.802;9.190;2023-09-12T13:30:55;15.48;;;6.43;;
13173;SDS011;6652;48.802;9.190;2023-09-12T13:33:24;26.60;;;6.32;;
13173;SDS011;6652;48.802;9.190;2023-09-12T13:35:51;15.55;;;6.20;;
13173;SDS011;6652;48.802;9.190;2023-09-12T13:38:18;10.48;;;5.78;;
13173;SDS011;6652;48.802;9.190;2023-09-12T13:40:46;10.98;;;6.10;;
13173;SDS011;6652;48.802;9.190;2023-09-12T13:43:13;12.30;;;5.88;;
13173;SDS011;6652;48.802;9.190;2023-09-12T13:45:40;20.80;;;5.93;;
13173;SDS011;6652;48.802;9.190;2023-09-12T13:48:07;14.27;;;5.72;;
13173;SDS011;6652;48.802;9.190;2023-09-12T13:50:35;14.82;;;5.55;;
13173;SDS011;6652;48.802;9.190;2023-09-12T13:53:03;14.25;;;5.85;;
13173;SDS011;6652;48.802;9.190;2023-09-12T13:55:31;14.98;;;6.53;;
13173;SDS011;6652;48.802;9.190;2023-09-12T13:58:00;19.38;;;6.13;;
13173;SDS011;6652;48.802;9.190;2023-09-12T14:00:28;15.80;;;6.53;;
13173;SDS011;6652;48.802;9.190;2023-09-12T14:02:57;11.02;;;6.30;;
13173;SDS011;6652;48.802;9.190;2023-09-12T14:05:24;17.75;;;6.43;;
13173;SDS011;6652;48.802;9.190;2023-09-12T14:07:52;16.17;;;6.57;;
13173;SDS011;6652;48.802;9.190;2023-09-12T14:10:19;13.57;;;6.43;;
13173;SDS011;6652;48.802;9.190;2023-09-12T14:12:46;23.17;;;6.35;;
13173;SDS011;6652;48.802;9.190;2023-09-12T14:15:13;14.50;;;6.22;;
13173;SDS011;6652;48.802;9.190;2023-09-12T14:17:40;13.15;;;6.13;;
13173;SDS011;6652;48.802;9.190;2023-09-12T14:20:08;11.35;;;7.05;;
13173;SDS011;6652;48.802;9.190;2023-09-12T14:22:36;11.02;;;6.32;;
13173;SDS011;6652;48.802;9.190;2023-09-12T14:25:05;12.57;;;6.00;;
13173;SDS011;6652;48.802;9.190;2023-09-12T14:27:33;18.60;;;6.82;;
13173;SDS011;6652;48.802;9.190;2023-09-12T14:30:00;20.20;;;6.18;;
13173;SDS011;6652;48.802;9.190;2023-09-12T14:32:28;12.98;;;6.30;;
13173;SDS011;6652;48.802;9.190;2023-09-12T14:34:55;11.43;;;6.57;;
13173;SDS011;6652;48.802;9.190;2023-09-12T14:37:22;19.17;;;6.28;;
13173;SDS011;6652;48.802;9.190;2023-09-12T14:39:52;14.63;;;6.30;;
13173;SDS011;6652;48.802;9.190;2023-09-12T14:42:20;14.30;;;6.40;;
13173;SDS011;6652;48.802;9.190;2023-09-12T14:44:47;15.85;;;6.30;;
13173;SDS011;6652;48.802;9.190;2023-09-12T14:47:14;21.98;;;6.95;;
13173;SDS011;6652;48.802;9.190;2023-09-12T14:49:43;14.88;;;6.45;;
13173;SDS011;6652;48.802;9.190;2023-09-12T14:52:10;11.82;;;6.90;;
13173;SDS011;6652;48.802;9.190;2023-09-12T14:54:37;15.18;;;7.43;;
13173;SDS011;6652;48.802;9.190;2023-09-12T14:57:04;21.63;;;8.00;;
13173;SDS011;6652;48.802;9.190;2023-09-12T14:59:32;17.65;;;7.47;;
13173;SDS011;6652;48.802;9.190;2023-09-12T15:01:58;18.60;;;6.60;;